sensor_id;sensor_type;location;lat;lon;timestamp;pressure;altitude;pressure_sealevel;temperature
19196;BMP280;9730;48.926;11.376;2022-09-01T00:01:45;97621.81;;;15.71
19196;BMP280;9730;48.926;11.376;2022-09-01T00:04:14;97617.59;;;15.57
19196;BMP280;9730;48.926;11.376;2022-09-01T00:06:41;97614.47;;;15.66
19196;BMP280;9730;48.926;11.376;2022-09-01T00:09:18;97616.88;;;15.55
19196;BMP280;9730;48.926;11.376;2022-09-01T00:11:48;97618.91;;;15.50
19196;BMP280;9730;48.926;11.376;2022-09-01T00:14:15;97617.75;;;15.42
19196;BMP280;9730;48.926;11.376;2022-09-01T00:19:08;97632.66;;;15.22
19196;BMP280;9730;48.926;11.376;2022-09-01T00:21:37;97624.22;;;15.34
19196;BMP280;9730;48.926;11.376;2022-09-01T00:24:05;97623.38;;;15.21
19196;BMP280;9730;48.926;11.376;2022-09-01T00:26:32;97626.56;;;15.37
19196;BMP280;9730;48.926;11.376;2022-09-01T00:28:58;97632.66;;;15.34
19196;BMP280;9730;48.926;11.376;2022-09-01T00:31:25;97609.13;;;15.44
19196;BMP280;9730;48.926;11.376;2022-09-01T00:33:52;97618.75;;;15.40
19196;BMP280;9730;48.926;11.376;2022-09-01T00:36:21;97621.78;;;15.32
19196;BMP280;9730;48.926;11.376;2022-09-01T00:38:48;97609.22;;;15.43
19196;BMP280;9730;48.926;11.376;2022-09-01T00:41:16;97616.59;;;15.34
19196;BMP280;9730;48.926;11.376;2022-09-01T00:43:45;97615.50;;;15.38
19196;BMP280;9730;48.926;11.376;2022-09-01T00:46:14;97611.72;;;15.31
19196;BMP280;9730;48.926;11.376;2022-09-01T00:48:41;97611.63;;;15.32
19196;BMP280;9730;48.926;11.376;2022-09-01T00:51:10;97607.84;;;15.25
19196;BMP280;9730;48.926;11.376;2022-09-01T00:53:41;97609.19;;;15.31
19196;BMP280;9730;48.926;11.376;2022-09-01T00:56:10;97610.38;;;15.25
19196;BMP280;9730;48.926;11.376;2022-09-01T00:58:38;97609.38;;;15.28
19196;BMP280;9730;48.926;11.376;2022-09-01T01:01:06;97603.91;;;15.34
19196;BMP280;9730;48.926;11.376;2022-09-01T01:03:33;97602.56;;;15.28
19196;BMP280;9730;48.926;11.376;2022-09-01T01:06:02;97595.19;;;15.38
19196;BMP280;9730;48.926;11.376;2022-09-01T01:08:35;97603.66;;;15.24
19196;BMP280;9730;48.926;11.376;2022-09-01T01:11:06;97601.78;;;15.14
19196;BMP280;9730;48.926;11.376;2022-09-01T01:13:46;97599.78;;;15.05
19196;BMP280;9730;48.926;11.376;2022-09-01T01:16:13;97606.72;;;15.03
19196;BMP280;9730;48.926;11.376;2022-09-01T01:18:40;97604.06;;;15.04
19196;BMP280;9730;48.926;11.376;2022-09-01T01:21:13;97599.53;;;15.09
19196;BMP280;9730;48.926;11.376;2022-09-01T01:24:03;97588.72;;;15.20
19196;BMP280;9730;48.926;11.376;2022-09-01T01:26:33;97587.91;;;15.19
19196;BMP280;9730;48.926;11.376;2022-09-01T01:28:59;97584.53;;;15.19
19196;BMP280;9730;48.926;11.376;2022-09-01T01:31:28;97590.34;;;15.21
19196;BMP280;9730;48.926;11.376;2022-09-01T01:33:56;97584.84;;;15.00
19196;BMP280;9730;48.926;11.376;2022-09-01T01:36:26;97578.19;;;15.12
19196;BMP280;9730;48.926;11.376;2022-09-01T01:38:59;97587.72;;;15.08
19196;BMP280;9730;48.926;11.376;2022-09-01T01:41:29;97586.91;;;15.08
19196;BMP280;9730;48.926;11.376;2022-09-01T01:43:59;97584.69;;;15.16
19196;BMP280;9730;48.926;11.376;2022-09-01T01:46:29;97585.00;;;15.11
19196;BMP280;9730;48.926;11.376;2022-09-01T01:48:56;97585.66;;;15.01
19196;BMP280;9730;48.926;11.376;2022-09-01T01:51:22;97590.81;;;14.99
19196;BMP280;9730;48.926;11.376;2022-09-01T01:53:53;97583.06;;;15.15
19196;BMP280;9730;48.926;11.376;2022-09-01T01:56:21;97586.09;;;15.07
19196;BMP280;9730;48.926;11.376;2022-09-01T01:58:50;97590.13;;;14.97
19196;BMP280;9730;48.926;11.376;2022-09-01T02:01:22;97580.75;;;14.98
19196;BMP280;9730;48.926;11.376;2022-09-01T02:03:50;97578.22;;;14.98
19196;BMP280;9730;48.926;11.376;2022-09-01T02:06:20;97577.16;;;14.88
19196;BMP280;9730;48.926;11.376;2022-09-01T02:08:49;97580.81;;;14.84
19196;BMP280;9730;48.926;11.376;2022-09-01T02:11:17;97585.53;;;14.90
19196;BMP280;9730;48.926;11.376;2022-09-01T02:13:44;97581.50;;;15.00
19196;BMP280;9730;48.926;11.376;2022-09-01T02:16:11;97577.94;;;15.02
19196;BMP280;9730;48.926;11.376;2022-09-01T02:18:42;97578.38;;;15.09
19196;BMP280;9730;48.926;11.376;2022-09-01T02:21:12;97576.56;;;15.11
19196;BMP280;9730;48.926;11.376;2022-09-01T02:23:45;97579.88;;;14.99
19196;BMP280;9730;48.926;11.376;2022-09-01T02:26:13;97580.38;;;14.78
19196;BMP280;9730;48.926;11.376;2022-09-01T02:28:41;97569.06;;;14.95
19196;BMP280;9730;48.926;11.376;2022-09-01T02:31:09;97570.50;;;14.99
19196;BMP280;9730;48.926;11.376;2022-09-01T02:33:36;97573.97;;;14.98
19196;BMP280;9730;48.926;11.376;2022-09-01T02:36:12;97568.13;;;15.10
19196;BMP280;9730;48.926;11.376;2022-09-01T02:38:40;97572.91;;;14.88
19196;BMP280;9730;48.926;11.376;2022-09-01T02:41:10;97574.28;;;14.80
19196;BMP280;9730;48.926;11.376;2022-09-01T02:43:39;97577.56;;;14.82
19196;BMP280;9730;48.926;11.376;2022-09-01T02:46:09;97576.47;;;14.86
19196;BMP280;9730;48.926;11.376;2022-09-01T02:48:38;97578.84;;;14.75
19196;BMP280;9730;48.926;11.376;2022-09-01T02:51:06;97571.56;;;14.69
19196;BMP280;9730;48.926;11.376;2022-09-01T02:53:35;97571.41;;;14.72
19196;BMP280;9730;48.926;11.376;2022-09-01T02:56:06;97565.25;;;14.62
19196;BMP280;9730;48.926;11.376;2022-09-01T02:58:37;97570.16;;;14.65
19196;BMP280;9730;48.926;11.376;2022-09-01T03:01:12;97567.25;;;14.71
19196;BMP280;9730;48.926;11.376;2022-09-01T03:03:39;97567.69;;;14.78
19196;BMP280;9730;48.926;11.376;2022-09-01T03:06:06;97563.75;;;14.86
19196;BMP280;9730;48.926;11.376;2022-09-01T03:08:35;97568.19;;;14.83
19196;BMP280;9730;48.926;11.376;2022-09-01T03:11:04;97573.63;;;14.90
19196;BMP280;9730;48.926;11.376;2022-09-01T03:13:36;97565.56;;;14.84
19196;BMP280;9730;48.926;11.376;2022-09-01T03:16:03;97564.78;;;14.70
19196;BMP280;9730;48.926;11.376;2022-09-01T03:18:31;97557.00;;;14.73
19196;BMP280;9730;48.926;11.376;2022-09-01T03:20:58;97572.94;;;15.01
19196;BMP280;9730;48.926;11.376;2022-09-01T03:23:24;97564.47;;;14.88
19196;BMP280;9730;48.926;11.376;2022-09-01T03:25:54;97566.50;;;14.69
19196;BMP280;9730;48.926;11.376;2022-09-01T03:28:21;97568.53;;;14.64
19196;BMP280;9730;48.926;11.376;2022-09-01T03:30:49;97565.16;;;14.78
19196;BMP280;9730;48.926;11.376;2022-09-01T03:33:18;97560.81;;;14.66
19196;BMP280;9730;48.926;11.376;2022-09-01T03:35:46;97558.38;;;14.64
19196;BMP280;9730;48.926;11.376;2022-09-01T03:38:13;97549.41;;;14.59
19196;BMP280;9730;48.926;11.376;2022-09-01T03:40:47;97558.31;;;14.52
19196;BMP280;9730;48.926;11.376;2022-09-01T03:43:15;97559.56;;;14.59
19196;BMP280;9730;48.926;11.376;2022-09-01T03:45:44;97557.91;;;14.58
19196;BMP280;9730;48.926;11.376;2022-09-01T03:48:11;97560.63;;;14.69
19196;BMP280;9730;48.926;11.376;2022-09-01T03:50:42;97555.84;;;14.64
19196;BMP280;9730;48.926;11.376;2022-09-01T03:53:12;97551.72;;;14.76
19196;BMP280;9730;48.926;11.376;2022-09-01T03:55:40;97553.06;;;14.81
19196;BMP280;9730;48.926;11.376;2022-09-01T03:58:10;97551.97;;;14.85
19196;BMP280;9730;48.926;11.376;2022-09-01T04:00:43;97543.66;;;14.95
19196;BMP280;9730;48.926;11.376;2022-09-01T04:03:11;97544.91;;;15.02
19196;BMP280;9730;48.926;11.376;2022-09-01T04:05:41;97546.25;;;14.82
19196;BMP280;9730;48.926;11.376;2022-09-01T04:08:09;97548.25;;;14.90
19196;BMP280;9730;48.926;11.376;2022-09-01T04:10:43;97550.63;;;14.80
19196;BMP280;9730;48.926;11.376;2022-09-01T04:13:16;97555.66;;;14.93
19196;BMP280;9730;48.926;11.376;2022-09-01T04:15:44;97552.63;;;15.01
19196;BMP280;9730;48.926;11.376;2022-09-01T04:18:11;97549.72;;;15.07
19196;BMP280;9730;48.926;11.376;2022-09-01T04:20:46;97554.34;;;14.74
19196;BMP280;9730;48.926;11.376;2022-09-01T04:23:16;97555.44;;;14.70
19196;BMP280;9730;48.926;11.376;2022-09-01T04:25:53;97548.63;;;14.85
19196;BMP280;9730;48.926;11.376;2022-09-01T04:28:22;97548.34;;;14.89
19196;BMP280;9730;48.926;11.376;2022-09-01T04:30:54;97548.13;;;14.92
19196;BMP280;9730;48.926;11.376;2022-09-01T04:33:23;97541.81;;;14.85
19196;BMP280;9730;48.926;11.376;2022-09-01T04:35:50;97552.88;;;14.84
19196;BMP280;9730;48.926;11.376;2022-09-01T04:38:23;97533.94;;;15.02
19196;BMP280;9730;48.926;11.376;2022-09-01T04:40:51;97546.88;;;14.85
19196;BMP280;9730;48.926;11.376;2022-09-01T04:43:17;97546.84;;;14.99
19196;BMP280;9730;48.926;11.376;2022-09-01T04:45:45;97553.31;;;14.90
19196;BMP280;9730;48.926;11.376;2022-09-01T04:48:18;97556.59;;;14.79
19196;BMP280;9730;48.926;11.376;2022-09-01T04:50:47;97550.56;;;14.67
19196;BMP280;9730;48.926;11.376;2022-09-01T04:53:22;97556.34;;;14.69
19196;BMP280;9730;48.926;11.376;2022-09-01T04:55:49;97553.28;;;14.64
19196;BMP280;9730;48.926;11.376;2022-09-01T04:58:19;97561.06;;;14.75
19196;BMP280;9730;48.926;11.376;2022-09-01T05:00:47;97557.09;;;14.71
19196;BMP280;9730;48.926;11.376;2022-09-01T05:03:18;97562.78;;;14.75
19196;BMP280;9730;48.926;11.376;2022-09-01T05:05:56;97561.13;;;14.88
19196;BMP280;9730;48.926;11.376;2022-09-01T05:08:25;97561.63;;;14.92
19196;BMP280;9730;48.926;11.376;2022-09-01T05:10:54;97571.91;;;14.91
19196;BMP280;9730;48.926;11.376;2022-09-01T05:13:33;97562.13;;;14.85
19196;BMP280;9730;48.926;11.376;2022-09-01T05:16:05;97554.94;;;15.18
19196;BMP280;9730;48.926;11.376;2022-09-01T05:18:39;97551.06;;;15.12
19196;BMP280;9730;48.926;11.376;2022-09-01T05:21:08;97561.84;;;14.89
19196;BMP280;9730;48.926;11.376;2022-09-01T05:23:36;97566.84;;;14.77
19196;BMP280;9730;48.926;11.376;2022-09-01T05:26:05;97566.16;;;14.75
19196;BMP280;9730;48.926;11.376;2022-09-01T05:28:39;97565.75;;;14.81
19196;BMP280;9730;48.926;11.376;2022-09-01T05:31:06;97566.81;;;14.91
19196;BMP280;9730;48.926;11.376;2022-09-01T05:33:33;97573.88;;;15.00
19196;BMP280;9730;48.926;11.376;2022-09-01T05:36:03;97570.56;;;15.12
19196;BMP280;9730;48.926;11.376;2022-09-01T05:38:32;97575.53;;;15.13
19196;BMP280;9730;48.926;11.376;2022-09-01T05:41:01;97568.00;;;15.12
19196;BMP280;9730;48.926;11.376;2022-09-01T05:43:29;97563.66;;;15.28
19196;BMP280;9730;48.926;11.376;2022-09-01T05:45:57;97572.41;;;15.36
19196;BMP280;9730;48.926;11.376;2022-09-01T05:48:25;97566.03;;;15.43
19196;BMP280;9730;48.926;11.376;2022-09-01T05:50:55;97562.59;;;15.56
19196;BMP280;9730;48.926;11.376;2022-09-01T05:53:26;97569.16;;;15.46
19196;BMP280;9730;48.926;11.376;2022-09-01T05:55:53;97569.69;;;15.51
19196;BMP280;9730;48.926;11.376;2022-09-01T05:58:22;97564.41;;;15.54
19196;BMP280;9730;48.926;11.376;2022-09-01T06:00:49;97571.16;;;15.68
19196;BMP280;9730;48.926;11.376;2022-09-01T06:03:18;97567.22;;;16.01
19196;BMP280;9730;48.926;11.376;2022-09-01T06:05:45;97565.00;;;16.34
19196;BMP280;9730;48.926;11.376;2022-09-01T06:08:18;97560.59;;;16.36
19196;BMP280;9730;48.926;11.376;2022-09-01T06:10:46;97555.06;;;16.54
19196;BMP280;9730;48.926;11.376;2022-09-01T06:13:15;97561.81;;;16.43
19196;BMP280;9730;48.926;11.376;2022-09-01T06:15:47;97572.38;;;16.61
19196;BMP280;9730;48.926;11.376;2022-09-01T06:18:14;97563.97;;;16.49
19196;BMP280;9730;48.926;11.376;2022-09-01T06:20:51;97561.69;;;16.44
19196;BMP280;9730;48.926;11.376;2022-09-01T06:23:17;97571.88;;;16.19
19196;BMP280;9730;48.926;11.376;2022-09-01T06:25:45;97564.69;;;16.26
19196;BMP280;9730;48.926;11.376;2022-09-01T06:28:16;97571.06;;;16.56
19196;BMP280;9730;48.926;11.376;2022-09-01T06:30:46;97568.44;;;16.81
19196;BMP280;9730;48.926;11.376;2022-09-01T06:33:13;97568.03;;;16.39
19196;BMP280;9730;48.926;11.376;2022-09-01T06:35:45;97574.88;;;16.26
19196;BMP280;9730;48.926;11.376;2022-09-01T06:38:13;97571.03;;;16.68
19196;BMP280;9730;48.926;11.376;2022-09-01T06:40:46;97573.16;;;16.74
19196;BMP280;9730;48.926;11.376;2022-09-01T06:43:13;97572.97;;;16.65
19196;BMP280;9730;48.926;11.376;2022-09-01T06:45:46;97579.56;;;16.67
19196;BMP280;9730;48.926;11.376;2022-09-01T06:48:14;97587.25;;;16.43
19196;BMP280;9730;48.926;11.376;2022-09-01T06:50:43;97586.63;;;16.64
19196;BMP280;9730;48.926;11.376;2022-09-01T06:53:10;97580.72;;;16.51
19196;BMP280;9730;48.926;11.376;2022-09-01T06:55:40;97580.44;;;16.55
19196;BMP280;9730;48.926;11.376;2022-09-01T06:58:09;97572.03;;;16.66
19196;BMP280;9730;48.926;11.376;2022-09-01T07:00:42;97580.63;;;17.24
19196;BMP280;9730;48.926;11.376;2022-09-01T07:03:12;97592.75;;;17.33
19196;BMP280;9730;48.926;11.376;2022-09-01T07:05:57;97585.66;;;17.59
19196;BMP280;9730;48.926;11.376;2022-09-01T07:08:45;97589.47;;;17.31
19196;BMP280;9730;48.926;11.376;2022-09-01T07:11:26;97575.88;;;17.43
19196;BMP280;9730;48.926;11.376;2022-09-01T07:13:55;97578.41;;;17.43
19196;BMP280;9730;48.926;11.376;2022-09-01T07:16:24;97574.56;;;17.37
19196;BMP280;9730;48.926;11.376;2022-09-01T07:18:55;97581.03;;;17.64
19196;BMP280;9730;48.926;11.376;2022-09-01T07:21:23;97581.28;;;18.17
19196;BMP280;9730;48.926;11.376;2022-09-01T07:23:51;97581.31;;;18.50
19196;BMP280;9730;48.926;11.376;2022-09-01T07:26:18;97580.28;;;18.42
19196;BMP280;9730;48.926;11.376;2022-09-01T07:28:45;97572.28;;;19.10
19196;BMP280;9730;48.926;11.376;2022-09-01T07:31:18;97559.72;;;20.30
19196;BMP280;9730;48.926;11.376;2022-09-01T07:33:49;97567.31;;;20.51
19196;BMP280;9730;48.926;11.376;2022-09-01T07:36:18;97554.00;;;20.96
19196;BMP280;9730;48.926;11.376;2022-09-01T07:38:46;97561.16;;;20.24
19196;BMP280;9730;48.926;11.376;2022-09-01T07:41:18;97570.94;;;19.37
19196;BMP280;9730;48.926;11.376;2022-09-01T07:44:24;97571.63;;;19.60
19196;BMP280;9730;48.926;11.376;2022-09-01T07:47:13;97570.50;;;19.53
19196;BMP280;9730;48.926;11.376;2022-09-01T07:49:42;97570.16;;;19.77
19196;BMP280;9730;48.926;11.376;2022-09-01T07:52:10;97571.78;;;19.78
19196;BMP280;9730;48.926;11.376;2022-09-01T07:54:36;97569.66;;;19.32
19196;BMP280;9730;48.926;11.376;2022-09-01T07:57:04;97584.38;;;19.19
19196;BMP280;9730;48.926;11.376;2022-09-01T07:59:32;97582.34;;;18.80
19196;BMP280;9730;48.926;11.376;2022-09-01T08:02:04;97585.69;;;18.59
19196;BMP280;9730;48.926;11.376;2022-09-01T08:04:31;97588.59;;;18.76
19196;BMP280;9730;48.926;11.376;2022-09-01T08:06:58;97594.13;;;19.14
19196;BMP280;9730;48.926;11.376;2022-09-01T08:09:28;97586.34;;;18.94
19196;BMP280;9730;48.926;11.376;2022-09-01T08:11:54;97597.44;;;18.51
19196;BMP280;9730;48.926;11.376;2022-09-01T08:14:21;97598.34;;;18.71
19196;BMP280;9730;48.926;11.376;2022-09-01T08:16:48;97595.53;;;19.07
19196;BMP280;9730;48.926;11.376;2022-09-01T08:19:15;97602.50;;;18.94
19196;BMP280;9730;48.926;11.376;2022-09-01T08:22:03;97600.28;;;19.12
19196;BMP280;9730;48.926;11.376;2022-09-01T08:24:40;97604.16;;;18.73
19196;BMP280;9730;48.926;11.376;2022-09-01T08:27:07;97612.28;;;19.11
19196;BMP280;9730;48.926;11.376;2022-09-01T08:29:34;97607.41;;;19.08
19196;BMP280;9730;48.926;11.376;2022-09-01T08:32:01;97620.06;;;18.66
19196;BMP280;9730;48.926;11.376;2022-09-01T08:34:27;97610.19;;;18.62
19196;BMP280;9730;48.926;11.376;2022-09-01T08:36:56;97615.41;;;18.38
19196;BMP280;9730;48.926;11.376;2022-09-01T08:39:23;97610.41;;;19.02
19196;BMP280;9730;48.926;11.376;2022-09-01T08:41:59;97615.84;;;19.19
19196;BMP280;9730;48.926;11.376;2022-09-01T08:44:32;97603.00;;;19.93
19196;BMP280;9730;48.926;11.376;2022-09-01T08:47:04;97604.69;;;19.52
19196;BMP280;9730;48.926;11.376;2022-09-01T08:49:33;97600.31;;;19.94
19196;BMP280;9730;48.926;11.376;2022-09-01T08:52:12;97605.59;;;19.82
19196;BMP280;9730;48.926;11.376;2022-09-01T08:54:45;97605.19;;;20.18
19196;BMP280;9730;48.926;11.376;2022-09-01T08:57:17;97606.59;;;20.51
19196;BMP280;9730;48.926;11.376;2022-09-01T09:00:04;97600.03;;;20.38
19196;BMP280;9730;48.926;11.376;2022-09-01T09:02:41;97609.34;;;19.58
19196;BMP280;9730;48.926;11.376;2022-09-01T09:05:27;97607.53;;;20.00
19196;BMP280;9730;48.926;11.376;2022-09-01T09:08:18;97613.84;;;19.85
19196;BMP280;9730;48.926;11.376;2022-09-01T09:10:54;97606.22;;;19.74
19196;BMP280;9730;48.926;11.376;2022-09-01T09:13:31;97614.53;;;19.87
19196;BMP280;9730;48.926;11.376;2022-09-01T09:16:01;97612.47;;;19.81
19196;BMP280;9730;48.926;11.376;2022-09-01T09:18:34;97606.53;;;20.42
19196;BMP280;9730;48.926;11.376;2022-09-01T09:21:08;97610.75;;;20.02
19196;BMP280;9730;48.926;11.376;2022-09-01T09:23:41;97607.63;;;20.19
19196;BMP280;9730;48.926;11.376;2022-09-01T09:26:08;97613.53;;;20.40
19196;BMP280;9730;48.926;11.376;2022-09-01T09:28:36;97602.19;;;20.92
19196;BMP280;9730;48.926;11.376;2022-09-01T09:31:23;97604.09;;;21.00
19196;BMP280;9730;48.926;11.376;2022-09-01T09:33:50;97592.94;;;21.38
19196;BMP280;9730;48.926;11.376;2022-09-01T09:36:18;97598.84;;;21.30
19196;BMP280;9730;48.926;11.376;2022-09-01T09:38:45;97599.13;;;22.02
19196;BMP280;9730;48.926;11.376;2022-09-01T09:41:17;97588.78;;;21.66
19196;BMP280;9730;48.926;11.376;2022-09-01T09:43:47;97589.31;;;21.79
19196;BMP280;9730;48.926;11.376;2022-09-01T09:46:24;97595.03;;;20.96
19196;BMP280;9730;48.926;11.376;2022-09-01T09:49:10;97583.19;;;21.98
19196;BMP280;9730;48.926;11.376;2022-09-01T09:51:39;97582.97;;;21.54
19196;BMP280;9730;48.926;11.376;2022-09-01T09:54:11;97585.22;;;22.14
19196;BMP280;9730;48.926;11.376;2022-09-01T09:56:39;97586.59;;;21.33
19196;BMP280;9730;48.926;11.376;2022-09-01T09:59:18;97587.97;;;20.79
19196;BMP280;9730;48.926;11.376;2022-09-01T10:01:47;97591.66;;;20.66
19196;BMP280;9730;48.926;11.376;2022-09-01T10:04:32;97582.59;;;20.91
19196;BMP280;9730;48.926;11.376;2022-09-01T10:06:58;97574.56;;;21.43
19196;BMP280;9730;48.926;11.376;2022-09-01T10:09:36;97564.19;;;21.73
19196;BMP280;9730;48.926;11.376;2022-09-01T10:12:03;97574.50;;;20.96
19196;BMP280;9730;48.926;11.376;2022-09-01T10:14:37;97571.91;;;21.73
19196;BMP280;9730;48.926;11.376;2022-09-01T10:17:10;97568.38;;;22.38
19196;BMP280;9730;48.926;11.376;2022-09-01T10:19:38;97568.47;;;21.16
19196;BMP280;9730;48.926;11.376;2022-09-01T10:22:07;97568.91;;;21.49
19196;BMP280;9730;48.926;11.376;2022-09-01T10:24:36;97569.31;;;21.26
19196;BMP280;9730;48.926;11.376;2022-09-01T10:27:07;97575.81;;;20.81
19196;BMP280;9730;48.926;11.376;2022-09-01T10:29:40;97567.81;;;21.33
19196;BMP280;9730;48.926;11.376;2022-09-01T10:32:11;97571.25;;;21.52
19196;BMP280;9730;48.926;11.376;2022-09-01T10:34:41;97578.22;;;20.73
19196;BMP280;9730;48.926;11.376;2022-09-01T10:37:08;97575.84;;;20.51
19196;BMP280;9730;48.926;11.376;2022-09-01T10:40:10;97574.81;;;21.12
19196;BMP280;9730;48.926;11.376;2022-09-01T10:42:37;97574.91;;;20.02
19196;BMP280;9730;48.926;11.376;2022-09-01T10:45:15;97580.84;;;20.53
19196;BMP280;9730;48.926;11.376;2022-09-01T10:47:43;97583.19;;;20.15
19196;BMP280;9730;48.926;11.376;2022-09-01T10:50:23;97588.03;;;19.88
19196;BMP280;9730;48.926;11.376;2022-09-01T10:53:06;97581.19;;;19.78
19196;BMP280;9730;48.926;11.376;2022-09-01T10:55:36;97574.78;;;20.24
19196;BMP280;9730;48.926;11.376;2022-09-01T10:58:33;97567.44;;;20.70
19196;BMP280;9730;48.926;11.376;2022-09-01T11:01:06;97568.72;;;20.64
19196;BMP280;9730;48.926;11.376;2022-09-01T11:03:59;97575.09;;;20.30
19196;BMP280;9730;48.926;11.376;2022-09-01T11:09:28;97568.38;;;19.78
19196;BMP280;9730;48.926;11.376;2022-09-01T11:12:24;97575.81;;;19.61
19196;BMP280;9730;48.926;11.376;2022-09-01T11:14:55;97572.22;;;20.04
19196;BMP280;9730;48.926;11.376;2022-09-01T11:17:25;97562.78;;;20.54
19196;BMP280;9730;48.926;11.376;2022-09-01T11:19:55;97561.25;;;20.91
19196;BMP280;9730;48.926;11.376;2022-09-01T11:22:29;97557.56;;;21.33
19196;BMP280;9730;48.926;11.376;2022-09-01T11:28:36;97556.06;;;21.30
19196;BMP280;9730;48.926;11.376;2022-09-01T11:31:20;97558.22;;;21.72
19196;BMP280;9730;48.926;11.376;2022-09-01T11:34:02;97554.06;;;21.71
19196;BMP280;9730;48.926;11.376;2022-09-01T11:36:32;97548.91;;;22.72
19196;BMP280;9730;48.926;11.376;2022-09-01T11:39:07;97552.03;;;22.66
19196;BMP280;9730;48.926;11.376;2022-09-01T11:41:52;97551.66;;;22.25
19196;BMP280;9730;48.926;11.376;2022-09-01T11:44:23;97549.22;;;22.23
19196;BMP280;9730;48.926;11.376;2022-09-01T11:46:55;97550.66;;;21.14
19196;BMP280;9730;48.926;11.376;2022-09-01T11:49:29;97553.50;;;21.30
19196;BMP280;9730;48.926;11.376;2022-09-01T11:51:57;97553.75;;;20.60
19196;BMP280;9730;48.926;11.376;2022-09-01T11:54:26;97552.91;;;20.20
19196;BMP280;9730;48.926;11.376;2022-09-01T11:56:53;97547.22;;;20.76
19196;BMP280;9730;48.926;11.376;2022-09-01T11:59:30;97544.44;;;21.07
19196;BMP280;9730;48.926;11.376;2022-09-01T12:01:57;97551.69;;;20.83
19196;BMP280;9730;48.926;11.376;2022-09-01T12:04:25;97555.31;;;20.42
19196;BMP280;9730;48.926;11.376;2022-09-01T12:06:56;97549.78;;;20.85
19196;BMP280;9730;48.926;11.376;2022-09-01T12:09:31;97544.78;;;20.84
19196;BMP280;9730;48.926;11.376;2022-09-01T12:11:58;97540.81;;;21.29
19196;BMP280;9730;48.926;11.376;2022-09-01T12:14:25;97531.59;;;21.83
19196;BMP280;9730;48.926;11.376;2022-09-01T12:16:56;97544.59;;;20.67
19196;BMP280;9730;48.926;11.376;2022-09-01T12:19:26;97537.03;;;21.61
19196;BMP280;9730;48.926;11.376;2022-09-01T12:21:58;97547.44;;;22.33
19196;BMP280;9730;48.926;11.376;2022-09-01T12:24:26;97542.53;;;21.94
19196;BMP280;9730;48.926;11.376;2022-09-01T12:26:54;97533.22;;;20.80
19196;BMP280;9730;48.926;11.376;2022-09-01T12:29:22;97537.28;;;21.30
19196;BMP280;9730;48.926;11.376;2022-09-01T12:31:50;97538.09;;;20.92
19196;BMP280;9730;48.926;11.376;2022-09-01T12:34:37;97537.34;;;20.72
19196;BMP280;9730;48.926;11.376;2022-09-01T12:37:09;97530.28;;;21.22
19196;BMP280;9730;48.926;11.376;2022-09-01T12:39:37;97535.06;;;22.10
19196;BMP280;9730;48.926;11.376;2022-09-01T12:42:07;97535.09;;;20.87
19196;BMP280;9730;48.926;11.376;2022-09-01T12:44:43;97525.03;;;22.26
19196;BMP280;9730;48.926;11.376;2022-09-01T12:47:13;97518.28;;;22.51
19196;BMP280;9730;48.926;11.376;2022-09-01T12:49:41;97521.78;;;22.50
19196;BMP280;9730;48.926;11.376;2022-09-01T12:52:16;97508.13;;;23.03
19196;BMP280;9730;48.926;11.376;2022-09-01T12:54:44;97514.00;;;22.87
19196;BMP280;9730;48.926;11.376;2022-09-01T12:57:23;97526.03;;;22.42
19196;BMP280;9730;48.926;11.376;2022-09-01T13:00:05;97526.97;;;22.41
19196;BMP280;9730;48.926;11.376;2022-09-01T13:02:35;97527.25;;;22.02
19196;BMP280;9730;48.926;11.376;2022-09-01T13:05:19;97510.03;;;23.01
19196;BMP280;9730;48.926;11.376;2022-09-01T13:07:47;97510.59;;;23.13
19196;BMP280;9730;48.926;11.376;2022-09-01T13:10:14;97519.84;;;22.62
19196;BMP280;9730;48.926;11.376;2022-09-01T13:12:42;97518.00;;;22.18
19196;BMP280;9730;48.926;11.376;2022-09-01T13:15:09;97518.53;;;22.12
19196;BMP280;9730;48.926;11.376;2022-09-01T13:17:36;97512.25;;;22.43
19196;BMP280;9730;48.926;11.376;2022-09-01T13:20:03;97503.94;;;22.22
19196;BMP280;9730;48.926;11.376;2022-09-01T13:22:30;97495.53;;;22.30
19196;BMP280;9730;48.926;11.376;2022-09-01T13:24:58;97505.81;;;22.30
19196;BMP280;9730;48.926;11.376;2022-09-01T13:27:24;97496.44;;;22.38
19196;BMP280;9730;48.926;11.376;2022-09-01T13:29:51;97501.28;;;22.41
19196;BMP280;9730;48.926;11.376;2022-09-01T13:32:18;97506.72;;;21.92
19196;BMP280;9730;48.926;11.376;2022-09-01T13:34:45;97500.91;;;22.36
19196;BMP280;9730;48.926;11.376;2022-09-01T13:37:11;97503.78;;;21.78
19196;BMP280;9730;48.926;11.376;2022-09-01T13:39:38;97490.81;;;21.80
19196;BMP280;9730;48.926;11.376;2022-09-01T13:42:06;97497.34;;;22.10
19196;BMP280;9730;48.926;11.376;2022-09-01T13:44:32;97490.38;;;22.56
19196;BMP280;9730;48.926;11.376;2022-09-01T13:46:59;97481.06;;;22.55
19196;BMP280;9730;48.926;11.376;2022-09-01T13:49:25;97479.63;;;22.70
19196;BMP280;9730;48.926;11.376;2022-09-01T13:51:52;97486.53;;;22.43
19196;BMP280;9730;48.926;11.376;2022-09-01T13:54:19;97478.00;;;22.69
19196;BMP280;9730;48.926;11.376;2022-09-01T13:56:45;97472.63;;;22.63
19196;BMP280;9730;48.926;11.376;2022-09-01T13:59:13;97474.47;;;22.17
19196;BMP280;9730;48.926;11.376;2022-09-01T14:01:39;97476.47;;;21.87
19196;BMP280;9730;48.926;11.376;2022-09-01T14:04:07;97481.28;;;22.08
19196;BMP280;9730;48.926;11.376;2022-09-01T14:06:38;97479.53;;;21.54
19196;BMP280;9730;48.926;11.376;2022-09-01T14:09:05;97477.63;;;21.28
19196;BMP280;9730;48.926;11.376;2022-09-01T14:11:31;97475.72;;;21.58
19196;BMP280;9730;48.926;11.376;2022-09-01T14:13:58;97470.34;;;21.23
19196;BMP280;9730;48.926;11.376;2022-09-01T14:16:26;97472.38;;;21.57
19196;BMP280;9730;48.926;11.376;2022-09-01T14:18:52;97466.28;;;21.11
19196;BMP280;9730;48.926;11.376;2022-09-01T14:21:19;97462.75;;;21.40
19196;BMP280;9730;48.926;11.376;2022-09-01T14:23:45;97465.88;;;21.25
19196;BMP280;9730;48.926;11.376;2022-09-01T14:26:13;97463.06;;;20.90
19196;BMP280;9730;48.926;11.376;2022-09-01T14:28:41;97457.09;;;21.28
19196;BMP280;9730;48.926;11.376;2022-09-01T14:31:10;97450.06;;;21.58
19196;BMP280;9730;48.926;11.376;2022-09-01T14:33:39;97452.03;;;21.83
19196;BMP280;9730;48.926;11.376;2022-09-01T14:36:06;97448.44;;;21.66
19196;BMP280;9730;48.926;11.376;2022-09-01T14:38:33;97446.63;;;21.76